Time;durP1;ratioP1;P1;durP2;ratioP2;P2;SDS_P1;SDS_P2;PMS_P1;PMS_P2;Temp;Humidity;BMP_temperature;BMP_pressure;BME280_temperature;BME280_humidity;BME280_pressure;Samples;Min_cycle;Max_cycle;Signal;HPM_P1;HPM_P2
2023/01/06 00:00:33;;;;;;;2.17;1.95;;;18.50;65.30;;;;;;5009781;28;20244;-70
2023/01/06 00:02:59;;;;;;;2.80;2.20;;;18.50;65.30;;;;;;4994036;28;20224;-70
2023/01/06 00:05:25;;;;;;;2.30;2.10;;;18.50;65.30;;;;;;4977772;28;20184;-70
2023/01/06 00:07:52;;;;;;;2.20;2.00;;;18.50;65.30;;;;;;5020267;28;20246;-70
2023/01/06 00:10:18;;;;;;;2.22;1.98;;;18.50;65.30;;;;;;4985511;28;20190;-70
2023/01/06 00:12:46;;;;;;;2.55;2.35;;;18.50;65.30;;;;;;5005832;28;20216;-70
2023/01/06 00:15:14;;;;;;;3.10;2.80;;;18.50;65.30;;;;;;5013134;28;20195;-70
2023/01/06 00:17:40;;;;;;;2.95;2.63;;;18.50;65.30;;;;;;5029348;28;20227;-70
2023/01/06 00:20:07;;;;;;;3.05;2.75;;;18.50;65.30;;;;;;5007192;28;20191;-70
2023/01/06 00:22:33;;;;;;;2.70;2.50;;;18.50;65.30;;;;;;4993176;28;20184;-69
2023/01/06 00:24:59;;;;;;;2.60;2.40;;;18.50;65.30;;;;;;4991633;28;20176;-70
2023/01/06 00:27:24;;;;;;;2.60;2.40;;;18.50;65.30;;;;;;5004545;28;20192;-70
2023/01/06 00:29:51;;;;;;;2.35;2.15;;;18.50;65.30;;;;;;4988729;28;20212;-69
2023/01/06 00:32:17;;;;;;;2.53;2.33;;;18.50;65.30;;;;;;4980087;28;20192;-70
2023/01/06 00:34:43;;;;;;;3.50;2.58;;;18.50;65.30;;;;;;4992554;28;20188;-70
2023/01/06 00:37:10;;;;;;;2.60;2.40;;;18.50;65.30;;;;;;5000207;28;20216;-70
2023/01/06 00:39:35;;;;;;;2.50;2.30;;;18.50;65.30;;;;;;5012789;28;20254;-70
2023/01/06 00:42:02;;;;;;;2.50;2.30;;;18.50;65.30;;;;;;5012533;28;20184;-70
2023/01/06 00:44:29;;;;;;;2.80;2.50;;;18.50;65.30;;;;;;5010573;28;20195;-70
2023/01/06 00:46:55;;;;;;;3.22;2.53;;;18.50;65.30;;;;;;5006739;28;20176;-70
2023/01/06 00:49:20;;;;;;;2.92;2.60;;;18.50;65.30;;;;;;4979912;28;20223;-70
2023/01/06 00:51:47;;;;;;;2.75;2.55;;;18.50;65.30;;;;;;5012331;28;20180;-70
2023/01/06 00:54:14;;;;;;;2.97;2.65;;;18.50;65.30;;;;;;4996397;28;20203;-70
2023/01/06 00:56:46;;;;;;;2.83;2.53;;;18.50;65.30;;;;;;4987841;28;20199;-70
2023/01/06 00:59:15;;;;;;;3.15;2.60;;;18.50;65.30;;;;;;5011738;28;20212;-70
2023/01/06 01:01:42;;;;;;;2.70;2.50;;;18.50;65.30;;;;;;5000086;28;20188;-70
2023/01/06 01:04:09;;;;;;;2.95;2.45;;;18.50;65.30;;;;;;4992640;28;20174;-70
2023/01/06 01:06:36;;;;;;;2.10;1.90;;;18.50;65.30;;;;;;4991855;28;20181;-70
2023/01/06 01:09:05;;;;;;;2.83;2.58;;;18.50;65.30;;;;;;5000199;28;20197;-70
2023/01/06 01:14:18;;;;;;;2.70;2.50;;;18.50;65.30;;;;;;5004040;28;20563;-70
2023/01/06 01:16:45;;;;;;;2.22;2.08;;;18.50;65.30;;;;;;5016795;28;20315;-70
2023/01/06 01:19:12;;;;;;;2.42;2.22;;;18.50;65.30;;;;;;4983821;28;20231;-69
2023/01/06 01:21:38;;;;;;;2.40;2.15;;;18.50;65.30;;;;;;4984272;28;20177;-70
2023/01/06 01:24:04;;;;;;;2.53;2.33;;;18.50;65.30;;;;;;4993356;28;20181;-70
2023/01/06 01:26:30;;;;;;;2.67;2.47;;;18.50;65.30;;;;;;4991943;28;20199;-70
2023/01/06 01:28:56;;;;;;;2.83;2.45;;;18.50;65.30;;;;;;4997002;28;20207;-70
2023/01/06 01:31:22;;;;;;;2.50;2.30;;;18.50;65.30;;;;;;4986920;28;20185;-71
2023/01/06 01:33:48;;;;;;;2.63;2.42;;;18.50;65.30;;;;;;4980333;28;20184;-70
2023/01/06 01:36:17;;;;;;;2.60;2.40;;;18.50;65.30;;;;;;4992167;28;20204;-70
2023/01/06 01:38:43;;;;;;;2.30;2.10;;;18.50;65.30;;;;;;5008005;28;20270;-70
2023/01/06 01:41:17;;;;;;;2.67;2.47;;;18.50;65.30;;;;;;5000141;28;20185;-70
2023/01/06 01:43:58;;;;;;;2.95;2.20;;;18.50;65.30;;;;;;5000375;28;20185;-70
2023/01/06 01:46:31;;;;;;;2.58;2.38;;;18.50;65.30;;;;;;4997605;28;20191;-70
2023/01/06 01:49:12;;;;;;;2.60;2.40;;;18.50;65.30;;;;;;4994852;28;20242;-69
2023/01/06 01:51:45;;;;;;;2.75;2.55;;;18.50;65.30;;;;;;5011339;28;20196;-70
2023/01/06 01:54:20;;;;;;;3.63;2.60;;;18.50;65.30;;;;;;5011686;28;20556;-69
2023/01/06 01:56:52;;;;;;;2.45;2.20;;;18.50;65.30;;;;;;4991634;28;20256;-70
2023/01/06 01:59:26;;;;;;;2.55;2.35;;;18.50;65.30;;;;;;5007440;28;20235;-69
2023/01/06 02:01:53;;;;;;;2.50;2.03;;;18.40;65.20;;;;;;4986595;28;20202;-69
2023/01/06 02:04:21;;;;;;;2.50;2.30;;;18.50;65.30;;;;;;5003273;28;20195;-69
2023/01/06 02:06:49;;;;;;;2.50;2.30;;;18.50;65.30;;;;;;5000005;28;20172;-70
2023/01/06 02:10:01;;;;;;;2.63;2.00;;;18.50;65.30;;;;;;4998826;28;20314;-70
2023/01/06 02:12:27;;;;;;;2.78;2.25;;;18.50;65.30;;;;;;5017058;28;20193;-69
2023/01/06 02:14:53;;;;;;;2.88;2.30;;;18.50;65.30;;;;;;5019719;28;20231;-69
2023/01/06 02:17:43;;;;;;;2.60;2.30;;;18.50;65.30;;;;;;5007724;28;20212;-70
2023/01/06 02:20:25;;;;;;;2.38;2.17;;;18.50;65.30;;;;;;4975676;28;20181;-70
2023/01/06 02:23:23;;;;;;;2.38;2.17;;;18.50;65.30;;;;;;5003876;28;20179;-70
2023/01/06 02:26:29;;;;;;;2.40;2.20;;;18.50;65.20;;;;;;5023939;28;20219;-70
2023/01/06 02:29:09;;;;;;;2.55;2.35;;;18.50;65.20;;;;;;5019760;28;20280;-70
2023/01/06 02:32:20;;;;;;;2.20;2.00;;;18.50;65.20;;;;;;5013167;28;20231;-69
2023/01/06 02:35:21;;;;;;;1.77;1.67;;;18.50;66.00;;;;;;4999303;28;20193;-70
2023/01/06 02:38:35;;;;;;;2.47;2.28;;;18.50;65.10;;;;;;5020653;28;20211;-70
2023/01/06 02:41:28;;;;;;;2.30;2.10;;;18.50;65.20;;;;;;4995209;28;20192;-69
2023/01/06 02:44:23;;;;;;;2.60;2.20;;;18.50;65.20;;;;;;5010289;28;20677;-69
2023/01/06 02:47:19;;;;;;;2.10;1.90;;;18.50;65.10;;;;;;5003357;28;20181;-69
2023/01/06 02:50:20;;;;;;;2.50;2.30;;;18.50;65.10;;;;;;5003340;28;20208;-69
2023/01/06 02:53:09;;;;;;;2.25;2.05;;;18.50;65.10;;;;;;4978791;28;20189;-70
2023/01/06 02:55:48;;;;;;;2.28;2.10;;;18.50;65.10;;;;;;5003213;28;20575;-70
2023/01/06 02:58:38;;;;;;;3.30;2.20;;;18.50;65.10;;;;;;4994460;28;20712;-70
2023/01/06 03:01:40;;;;;;;1.90;1.80;;;18.50;65.10;;;;;;5000875;28;20234;-69
2023/01/06 03:04:11;;;;;;;2.33;2.13;;;18.50;65.00;;;;;;4994942;28;20192;-70
2023/01/06 03:06:44;;;;;;;2.20;2.00;;;18.50;65.10;;;;;;5012215;28;20184;-69
2023/01/06 03:09:19;;;;;;;2.67;2.05;;;18.50;65.00;;;;;;5009087;28;20225;-69
2023/01/06 03:11:50;;;;;;;2.15;1.95;;;18.50;65.00;;;;;;4998220;28;20187;-70
2023/01/06 03:14:26;;;;;;;2.35;2.10;;;18.50;65.80;;;;;;5014364;28;20195;-70
2023/01/06 03:16:54;;;;;;;2.00;1.80;;;18.50;65.00;;;;;;5014874;28;20195;-70
2023/01/06 03:19:21;;;;;;;1.70;1.60;;;18.50;65.00;;;;;;5012391;28;20290;-70
2023/01/06 03:21:50;;;;;;;2.10;1.90;;;18.50;64.90;;;;;;4986236;28;20184;-70
2023/01/06 03:24:19;;;;;;;2.35;2.15;;;18.50;65.00;;;;;;5007037;28;20193;-70
2023/01/06 03:26:48;;;;;;;2.20;2.00;;;18.50;64.90;;;;;;4997262;28;20184;-69
2023/01/06 03:29:17;;;;;;;2.00;1.80;;;18.50;65.00;;;;;;4997603;28;20235;-70
2023/01/06 03:32:31;;;;;;;2.25;2.05;;;18.50;65.00;;;;;;4981604;28;20181;-70
2023/01/06 03:35:12;;;;;;;2.00;1.67;;;18.50;64.90;;;;;;4968098;28;20196;-69
2023/01/06 03:38:31;;;;;;;1.73;1.63;;;18.50;64.90;;;;;;4984489;28;20604;-70
2023/01/06 03:44:51;;;;;;;1.63;1.52;;;18.50;64.90;;;;;;5009133;28;20184;-70
2023/01/06 03:47:50;;;;;;;1.70;1.60;;;18.40;64.80;;;;;;4982332;28;20196;-70
2023/01/06 03:50:31;;;;;;;2.10;1.75;;;18.50;64.90;;;;;;5000584;28;20207;-70
2023/01/06 03:53:41;;;;;;;2.25;1.85;;;18.50;64.90;;;;;;5001931;28;20225;-69
2023/01/06 03:56:21;;;;;;;2.10;1.90;;;18.50;64.80;;;;;;4956929;28;20196;-70
2023/01/06 03:58:55;;;;;;;2.17;1.58;;;18.50;64.80;;;;;;5010756;28;20231;-70
2023/01/06 04:01:25;;;;;;;1.50;1.40;;;18.50;64.80;;;;;;5005976;28;20261;-70
2023/01/06 04:03:55;;;;;;;1.65;1.55;;;18.50;64.70;;;;;;4996671;28;20191;-70
2023/01/06 04:06:25;;;;;;;1.80;1.70;;;18.50;64.80;;;;;;5005550;28;20184;-70
2023/01/06 04:08:51;;;;;;;1.73;1.60;;;18.50;64.80;;;;;;4993410;28;20216;-70
2023/01/06 04:14:02;;;;;;;2.08;1.50;;;18.40;64.70;;;;;;5000412;28;20181;-70
2023/01/06 04:16:29;;;;;;;1.70;1.60;;;18.50;64.70;;;;;;5009531;28;20407;-70
2023/01/06 04:18:55;;;;;;;1.70;1.58;;;18.50;64.70;;;;;;4996344;28;20294;-70
2023/01/06 04:21:20;;;;;;;1.88;1.77;;;18.50;64.70;;;;;;4996965;28;20675;-70
2023/01/06 04:23:46;;;;;;;1.60;1.50;;;18.50;64.60;;;;;;5006159;28;20189;-70
2023/01/06 04:26:12;;;;;;;1.40;1.20;;;18.50;64.60;;;;;;4977138;28;20193;-70
2023/01/06 04:28:45;;;;;;;1.77;1.67;;;18.50;64.60;;;;;;4988186;28;20231;-70
2023/01/06 04:31:11;;;;;;;1.50;1.40;;;18.50;64.60;;;;;;5011891;28;20191;-71
2023/01/06 04:33:38;;;;;;;1.60;1.40;;;18.50;64.60;;;;;;5004597;28;20181;-70
2023/01/06 04:36:07;;;;;;;2.03;1.50;;;18.50;64.60;;;;;;4993046;28;20236;-70
2023/01/06 04:38:34;;;;;;;1.30;1.20;;;18.50;65.40;;;;;;4993125;28;20247;-69
2023/01/06 04:41:00;;;;;;;2.75;1.30;;;18.50;64.60;;;;;;4992517;28;20193;-69
2023/01/06 04:43:26;;;;;;;1.50;1.40;;;18.50;64.40;;;;;;5008784;28;20184;-69
2023/01/06 04:45:52;;;;;;;1.35;1.25;;;18.50;64.50;;;;;;4993588;28;20187;-69
2023/01/06 04:48:18;;;;;;;1.42;1.33;;;18.50;64.50;;;;;;4991525;28;20213;-70
2023/01/06 04:50:43;;;;;;;1.52;1.42;;;18.50;64.50;;;;;;5000871;28;20192;-70
2023/01/06 04:53:11;;;;;;;1.33;1.23;;;18.50;64.40;;;;;;4999602;28;20223;-70
2023/01/06 04:55:38;;;;;;;1.70;1.60;;;18.50;64.40;;;;;;4995230;28;20185;-70
2023/01/06 04:58:04;;;;;;;1.42;1.33;;;18.50;64.40;;;;;;4980613;28;20212;-69
2023/01/06 05:00:30;;;;;;;1.30;1.20;;;18.50;64.40;;;;;;5004455;28;20339;-70
2023/01/06 05:02:56;;;;;;;2.22;1.50;;;18.50;64.50;;;;;;4992704;28;20272;-69
2023/01/06 05:05:21;;;;;;;1.23;1.13;;;18.50;64.40;;;;;;4992505;28;20192;-70
2023/01/06 05:07:47;;;;;;;1.50;1.40;;;18.50;64.40;;;;;;5009687;28;20689;-69
2023/01/06 05:10:13;;;;;;;1.50;1.40;;;18.50;64.40;;;;;;5008751;28;20250;-70
2023/01/06 05:12:39;;;;;;;1.67;1.58;;;18.50;64.40;;;;;;5000808;28;20211;-69
2023/01/06 05:15:05;;;;;;;1.52;1.42;;;18.50;64.40;;;;;;5005071;28;20184;-69
2023/01/06 05:17:31;;;;;;;1.70;1.60;;;18.50;64.30;;;;;;5019896;28;20294;-70
2023/01/06 05:19:57;;;;;;;1.50;1.40;;;18.50;64.40;;;;;;5000397;28;20215;-70
2023/01/06 05:22:22;;;;;;;1.58;1.48;;;18.50;64.40;;;;;;5000641;28;20655;-69
2023/01/06 05:24:48;;;;;;;2.67;1.63;;;18.50;64.30;;;;;;5010820;28;20181;-70
2023/01/06 05:27:14;;;;;;;1.67;1.58;;;18.50;64.30;;;;;;4987461;28;20253;-70
2023/01/06 05:29:40;;;;;;;1.63;1.52;;;18.40;64.10;;;;;;5011723;28;20220;-70
2023/01/06 05:32:06;;;;;;;1.95;1.73;;;18.50;64.30;;;;;;4995375;28;20180;-69
2023/01/06 05:34:31;;;;;;;1.58;1.40;;;18.40;64.20;;;;;;4987579;28;20196;-70
2023/01/06 05:36:57;;;;;;;1.40;1.30;;;18.50;64.20;;;;;;5011485;28;20191;-69
2023/01/06 05:39:23;;;;;;;1.70;1.60;;;18.50;64.10;;;;;;4995273;28;20234;-69
2023/01/06 05:41:49;;;;;;;1.52;1.35;;;18.50;64.20;;;;;;5011598;28;20243;-70
2023/01/06 05:44:15;;;;;;;1.42;1.33;;;18.50;64.30;;;;;;5006259;28;20280;-70
2023/01/06 05:46:40;;;;;;;1.50;1.40;;;18.40;64.10;;;;;;4983755;28;20249;-69
2023/01/06 05:49:08;;;;;;;1.67;1.58;;;18.50;64.20;;;;;;5004027;28;20249;-70
2023/01/06 05:51:33;;;;;;;1.58;1.48;;;18.40;64.00;;;;;;4991792;28;20219;-69
2023/01/06 05:53:59;;;;;;;1.80;1.70;;;18.50;64.10;;;;;;4991692;28;20193;-70
2023/01/06 05:56:25;;;;;;;2.08;1.88;;;18.50;64.20;;;;;;4998507;28;20228;-70
2023/01/06 05:58:52;;;;;;;1.67;1.55;;;18.50;64.10;;;;;;5016546;28;20315;-70
2023/01/06 06:01:25;;;;;;;1.70;1.60;;;18.50;64.10;;;;;;4999639;28;20193;-70
2023/01/06 06:03:52;;;;;;;1.75;1.65;;;18.50;64.10;;;;;;4993571;28;20195;-70
2023/01/06 06:06:20;;;;;;;1.60;1.50;;;18.50;64.10;;;;;;5005725;28;20180;-70
2023/01/06 06:08:46;;;;;;;1.80;1.70;;;18.50;64.10;;;;;;5008881;28;20216;-70
2023/01/06 06:11:16;;;;;;;1.50;1.40;;;18.50;64.10;;;;;;4989760;28;20196;-69
2023/01/06 06:13:52;;;;;;;3.47;2.20;;;18.50;64.10;;;;;;5009971;28;20196;-70
2023/01/06 06:16:25;;;;;;;3.03;2.70;;;18.50;64.10;;;;;;4995045;28;20183;-70
2023/01/06 06:18:54;;;;;;;4.85;3.92;;;18.50;64.00;;;;;;5008641;28;20223;-70
2023/01/06 06:21:25;;;;;;;5.68;4.70;;;18.40;64.00;;;;;;4989733;28;20294;-69
2023/01/06 06:23:57;;;;;;;5.32;4.82;;;18.50;64.00;;;;;;4995910;28;20558;-70
2023/01/06 06:26:24;;;;;;;7.80;5.32;;;18.50;64.00;;;;;;5011195;28;20187;-70
2023/01/06 06:28:50;;;;;;;6.60;5.13;;;18.40;63.90;;;;;;5008968;28;20219;-69
2023/01/06 06:31:25;;;;;;;8.27;6.07;;;18.50;64.00;;;;;;4975276;28;20205;-70
2023/01/06 06:33:54;;;;;;;9.93;7.38;;;18.50;64.00;;;;;;4975464;28;20192;-70
2023/01/06 06:36:20;;;;;;;11.13;8.35;;;18.50;64.00;;;;;;5005215;28;20263;-69
2023/01/06 06:38:48;;;;;;;12.82;9.52;;;18.50;64.00;;;;;;4976979;28;20299;-70
2023/01/06 06:41:15;;;;;;;11.85;8.95;;;18.50;64.00;;;;;;4997090;28;20192;-69
2023/01/06 06:43:41;;;;;;;12.52;9.77;;;18.40;63.90;;;;;;5002785;28;20199;-70
2023/01/06 06:46:07;;;;;;;12.95;10.10;;;18.50;63.90;;;;;;4994818;28;20180;-69
2023/01/06 06:48:33;;;;;;;11.95;9.85;;;18.50;63.90;;;;;;5010490;28;20303;-69
2023/01/06 06:51:03;;;;;;;12.30;9.90;;;18.50;63.90;;;;;;5016030;28;20189;-69
2023/01/06 06:53:29;;;;;;;10.70;8.73;;;18.40;63.80;;;;;;5006349;28;20195;-70
2023/01/06 06:55:55;;;;;;;12.40;9.90;;;18.50;63.90;;;;;;4994579;28;20189;-70
2023/01/06 06:58:21;;;;;;;10.80;8.73;;;18.50;63.90;;;;;;5010323;28;20322;-69
2023/01/06 07:00:47;;;;;;;12.88;9.73;;;18.50;63.80;;;;;;5002241;28;20193;-70
2023/01/06 07:03:13;;;;;;;11.30;8.98;;;18.50;63.80;;;;;;5010809;28;20242;-70
2023/01/06 07:05:44;;;;;;;11.05;8.93;;;18.50;63.80;;;;;;4994220;28;20204;-70
2023/01/06 07:08:11;;;;;;;11.73;9.10;;;18.50;63.70;;;;;;5022652;28;20216;-70
2023/01/06 07:10:38;;;;;;;11.25;8.82;;;18.50;63.80;;;;;;5008010;28;20187;-70
2023/01/06 07:13:04;;;;;;;12.27;9.82;;;18.50;63.70;;;;;;4998086;28;20184;-70
2023/01/06 07:15:30;;;;;;;10.20;8.57;;;18.50;63.80;;;;;;4983063;28;20219;-70
2023/01/06 07:18:00;;;;;;;10.85;8.98;;;18.50;63.80;;;;;;4991220;28;20259;-70
2023/01/06 07:20:27;;;;;;;10.00;8.85;;;18.50;63.80;;;;;;4989774;28;20267;-70
2023/01/06 07:22:53;;;;;;;10.32;8.80;;;18.50;63.80;;;;;;5020696;28;20189;-70
2023/01/06 07:25:19;;;;;;;11.18;9.13;;;18.50;63.80;;;;;;4997927;28;20184;-69
2023/01/06 07:27:45;;;;;;;11.65;9.23;;;18.50;63.80;;;;;;4993929;28;20216;-69
2023/01/06 07:30:11;;;;;;;10.80;8.95;;;18.50;63.80;;;;;;4998690;28;20192;-69
2023/01/06 07:32:37;;;;;;;10.75;9.00;;;18.50;63.70;;;;;;5014399;28;20194;-69
2023/01/06 07:35:03;;;;;;;9.88;8.48;;;18.50;63.70;;;;;;5004241;28;20193;-69
2023/01/06 07:37:29;;;;;;;10.90;9.00;;;18.50;63.70;;;;;;5003355;28;20211;-69
2023/01/06 07:39:54;;;;;;;10.95;8.40;;;18.50;63.70;;;;;;4995565;28;20205;-69
2023/01/06 07:42:20;;;;;;;10.63;9.40;;;18.50;63.70;;;;;;5031201;23;20290;-64
2023/01/06 07:44:46;;;;;;;11.77;9.25;;;18.50;63.70;;;;;;5014835;28;20230;-63
2023/01/06 07:47:12;;;;;;;11.88;8.98;;;18.50;63.70;;;;;;5009561;28;20175;-65
2023/01/06 07:49:38;;;;;;;11.10;9.05;;;18.50;63.60;;;;;;5016825;28;20202;-64
2023/01/06 07:52:04;;;;;;;10.77;9.05;;;18.50;63.60;;;;;;5022001;28;20347;-64
2023/01/06 07:54:29;;;;;;;10.38;8.82;;;18.50;63.50;;;;;;5013714;28;20188;-64
2023/01/06 07:56:55;;;;;;;10.73;8.93;;;18.50;63.60;;;;;;5020570;28;20192;-64
2023/01/06 07:59:21;;;;;;;9.20;8.18;;;18.50;63.60;;;;;;5031909;28;20207;-64
2023/01/06 08:01:47;;;;;;;9.20;7.85;;;18.50;63.30;;;;;;5029962;28;20669;-64
2023/01/06 08:04:12;;;;;;;10.32;8.30;;;18.50;63.50;;;;;;5020704;28;20215;-64
2023/01/06 08:06:39;;;;;;;9.40;8.07;;;18.50;63.50;;;;;;5012473;28;20480;-64
2023/01/06 08:09:05;;;;;;;8.73;7.82;;;18.50;63.50;;;;;;5021374;28;20196;-64
2023/01/06 08:11:31;;;;;;;9.35;7.90;;;18.50;63.40;;;;;;5021392;28;20196;-64
2023/01/06 08:13:56;;;;;;;9.23;8.13;;;18.50;63.50;;;;;;5022919;28;20216;-64
2023/01/06 08:16:22;;;;;;;9.85;7.72;;;18.50;63.50;;;;;;5027481;28;20188;-64
2023/01/06 08:18:48;;;;;;;8.98;7.40;;;18.50;63.40;;;;;;5010271;28;20208;-65
2023/01/06 08:21:14;;;;;;;8.25;7.35;;;18.50;63.40;;;;;;5032866;28;20659;-64
2023/01/06 08:23:40;;;;;;;8.63;7.68;;;18.50;63.40;;;;;;5024203;28;20215;-65
2023/01/06 08:26:09;;;;;;;8.20;6.95;;;18.50;63.40;;;;;;5041148;28;20181;-65
2023/01/06 08:28:35;;;;;;;7.90;7.05;;;18.50;63.40;;;;;;5012577;28;20202;-65
2023/01/06 08:31:02;;;;;;;9.05;7.30;;;18.50;63.40;;;;;;5031335;28;20278;-64
2023/01/06 08:33:28;;;;;;;7.22;6.45;;;18.50;63.30;;;;;;5012574;28;20215;-65
2023/01/06 08:36:04;;;;;;;8.27;7.25;;;18.50;63.40;;;;;;5021996;28;20191;-64
2023/01/06 08:38:31;;;;;;;7.85;6.80;;;18.50;63.30;;;;;;5010426;28;20226;-64
2023/01/06 08:40:58;;;;;;;7.22;6.50;;;18.50;63.30;;;;;;5014494;28;20183;-65
2023/01/06 08:43:25;;;;;;;7.57;6.70;;;18.50;63.30;;;;;;5016615;28;20223;-64
2023/01/06 08:45:51;;;;;;;7.25;6.55;;;18.50;63.30;;;;;;5022551;28;20206;-64
2023/01/06 08:48:18;;;;;;;7.00;6.30;;;18.50;63.30;;;;;;5014876;28;20237;-64
2023/01/06 08:50:44;;;;;;;7.22;6.00;;;18.50;63.30;;;;;;5032142;28;20274;-64
2023/01/06 08:53:11;;;;;;;7.15;6.38;;;18.50;63.30;;;;;;5031796;28;20302;-64
2023/01/06 08:55:39;;;;;;;6.85;5.85;;;18.50;63.30;;;;;;5031954;28;20672;-64
2023/01/06 08:58:06;;;;;;;6.63;5.93;;;18.50;63.30;;;;;;5019625;28;20216;-64
2023/01/06 09:00:32;;;;;;;6.78;6.07;;;18.50;63.30;;;;;;5026630;28;20194;-64
2023/01/06 09:02:58;;;;;;;6.82;5.68;;;18.50;63.30;;;;;;5013564;28;20215;-64
2023/01/06 09:05:24;;;;;;;6.97;5.85;;;18.50;63.30;;;;;;5005540;28;20188;-63
2023/01/06 09:07:49;;;;;;;6.68;5.97;;;18.50;63.30;;;;;;5003795;28;20554;-64
2023/01/06 09:10:16;;;;;;;5.93;5.32;;;18.50;63.30;;;;;;5021045;28;20243;-64
2023/01/06 09:12:42;;;;;;;6.47;5.82;;;18.50;63.30;;;;;;5020646;28;20262;-64
2023/01/06 09:15:09;;;;;;;6.30;5.70;;;18.60;63.40;;;;;;5020766;28;20188;-64
2023/01/06 09:17:34;;;;;;;5.90;5.30;;;18.50;63.30;;;;;;5026158;28;20218;-64
2023/01/06 09:20:00;;;;;;;5.95;5.35;;;18.50;63.30;;;;;;5024494;28;20183;-64
2023/01/06 09:22:26;;;;;;;5.90;5.30;;;18.60;63.40;;;;;;5031379;28;20648;-64
2023/01/06 09:24:52;;;;;;;5.15;4.65;;;18.60;63.40;;;;;;5031094;28;20228;-64
2023/01/06 09:27:17;;;;;;;6.20;5.05;;;18.50;63.30;;;;;;5015800;28;20187;-63
2023/01/06 09:29:43;;;;;;;5.47;4.85;;;18.60;63.40;;;;;;5023538;28;20191;-64
2023/01/06 09:32:09;;;;;;;5.82;4.50;;;18.60;63.40;;;;;;5022916;28;20218;-63
2023/01/06 09:34:34;;;;;;;5.47;4.97;;;18.60;63.40;;;;;;5010975;28;20203;-64
2023/01/06 09:37:00;;;;;;;5.53;4.97;;;18.60;63.40;;;;;;5023352;28;20198;-64
2023/01/06 09:39:26;;;;;;;5.05;4.55;;;18.60;63.40;;;;;;5001455;28;20735;-64
2023/01/06 09:42:14;;;;;;;5.18;4.63;;;18.60;63.40;;;;;;5008720;28;20227;-64
2023/01/06 09:44:55;;;;;;;5.25;4.75;;;18.50;63.30;;;;;;5000057;28;20203;-64
2023/01/06 09:47:31;;;;;;;5.32;4.82;;;18.60;63.40;;;;;;5024864;28;20188;-64
2023/01/06 09:50:29;;;;;;;4.50;4.10;;;18.60;63.40;;;;;;5021952;28;20202;-65
2023/01/06 09:53:09;;;;;;;5.00;4.50;;;18.60;63.40;;;;;;5010235;28;20238;-64
2023/01/06 09:55:44;;;;;;;5.00;4.50;;;18.60;63.50;;;;;;5022570;28;20205;-66
2023/01/06 09:58:14;;;;;;;5.05;4.55;;;18.60;63.40;;;;;;5003854;28;20579;-64
2023/01/06 10:00:51;;;;;;;5.45;4.18;;;18.60;63.50;;;;;;5019870;28;20195;-63
2023/01/06 10:03:23;;;;;;;4.78;4.32;;;18.60;63.50;;;;;;5019771;28;20211;-64
2023/01/06 10:06:29;;;;;;;4.60;4.20;;;18.60;63.50;;;;;;5030944;28;20223;-64
2023/01/06 10:09:11;;;;;;;4.80;4.22;;;18.60;63.60;;;;;;5029763;28;20209;-64
2023/01/06 10:12:01;;;;;;;4.45;3.78;;;18.60;63.60;;;;;;5010921;28;20206;-63
2023/01/06 10:14:42;;;;;;;4.80;4.30;;;18.60;63.60;;;;;;5002688;28;20244;-64
2023/01/06 10:17:52;;;;;;;4.88;4.47;;;18.60;63.70;;;;;;5014186;28;20695;-65
2023/01/06 10:20:43;;;;;;;4.38;3.97;;;18.60;63.70;;;;;;5006082;28;20195;-64
2023/01/06 10:23:49;;;;;;;4.47;4.07;;;18.60;63.70;;;;;;5030199;28;20305;-62
2023/01/06 10:26:26;;;;;;;4.55;3.80;;;18.70;63.80;;;;;;5014279;28;20272;-65
2023/01/06 10:29:00;;;;;;;4.28;3.88;;;18.70;63.80;;;;;;5013610;28;20194;-66
2023/01/06 10:31:33;;;;;;;4.22;3.72;;;18.70;63.90;;;;;;5020444;28;20192;-64
2023/01/06 10:34:01;;;;;;;5.47;3.78;;;18.70;63.90;;;;;;5018700;28;20265;-65
2023/01/06 10:36:38;;;;;;;4.82;3.58;;;18.70;63.80;;;;;;5005034;28;20192;-65
2023/01/06 10:39:15;;;;;;;4.22;3.83;;;18.70;63.90;;;;;;5013792;28;20208;-65
2023/01/06 10:45:11;;;;;;;3.90;3.60;;;18.70;63.90;;;;;;5026706;28;20193;-65
2023/01/06 10:47:41;;;;;;;4.00;3.60;;;18.70;64.00;;;;;;5027237;28;20668;-66
2023/01/06 10:50:12;;;;;;;3.65;3.35;;;18.70;63.90;;;;;;5032566;28;20223;-65
2023/01/06 10:52:38;;;;;;;4.00;3.03;;;18.70;64.00;;;;;;5020812;28;20237;-65
2023/01/06 10:55:06;;;;;;;3.63;3.33;;;18.70;64.00;;;;;;5032291;28;20188;-65
2023/01/06 10:57:40;;;;;;;3.53;3.22;;;18.70;64.00;;;;;;5030781;28;20220;-65
2023/01/06 11:00:22;;;;;;;3.80;3.35;;;18.70;64.00;;;;;;5006059;28;20175;-65
2023/01/06 11:03:02;;;;;;;3.90;2.83;;;18.70;64.10;;;;;;5009137;28;20226;-67
2023/01/06 11:05:31;;;;;;;3.25;2.97;;;18.70;64.20;;;;;;5034195;28;20273;-66
2023/01/06 11:08:00;;;;;;;3.47;3.13;;;18.70;64.30;;;;;;5024276;28;20223;-65
2023/01/06 11:10:53;;;;;;;3.20;2.90;;;18.70;64.30;;;;;;5021978;28;20192;-66
2023/01/06 11:13:34;;;;;;;3.58;2.60;;;18.70;64.30;;;;;;5013186;28;20262;-65
2023/01/06 11:16:05;;;;;;;3.97;2.40;;;18.70;64.30;;;;;;5013951;28;20191;-65
2023/01/06 11:18:35;;;;;;;3.17;2.72;;;18.70;64.30;;;;;;5020040;28;20203;-66
2023/01/06 11:21:13;;;;;;;3.20;2.90;;;18.70;64.30;;;;;;5013920;28;20641;-65
2023/01/06 11:23:42;;;;;;;4.30;2.90;;;18.70;64.30;;;;;;4997340;28;20254;-66
2023/01/06 11:26:10;;;;;;;3.28;2.85;;;18.70;64.30;;;;;;5030195;28;20187;-66
2023/01/06 11:28:38;;;;;;;2.85;2.65;;;18.70;64.30;;;;;;5030619;28;20191;-67
2023/01/06 11:31:09;;;;;;;3.00;2.70;;;18.70;64.40;;;;;;5034602;28;20237;-66
2023/01/06 11:34:01;;;;;;;3.25;2.92;;;18.70;64.30;;;;;;5033438;28;20249;-66
2023/01/06 11:36:31;;;;;;;3.17;2.88;;;18.70;64.40;;;;;;5022001;28;20188;-66
2023/01/06 11:38:59;;;;;;;2.88;2.67;;;18.70;64.30;;;;;;5029924;28;20239;-65
2023/01/06 11:41:39;;;;;;;2.83;2.53;;;18.70;64.30;;;;;;5015204;28;20271;-66
2023/01/06 11:44:09;;;;;;;4.63;2.80;;;18.80;64.40;;;;;;5031051;28;20175;-66
2023/01/06 11:46:38;;;;;;;2.75;2.55;;;18.70;64.30;;;;;;5030065;28;20184;-66
2023/01/06 11:49:17;;;;;;;4.20;2.85;;;18.70;64.30;;;;;;5006064;28;20270;-67
2023/01/06 11:51:42;;;;;;;4.30;2.30;;;18.70;64.30;;;;;;5027009;28;20211;-66
2023/01/06 11:54:32;;;;;;;2.30;2.10;;;18.80;64.40;;;;;;5031164;28;20187;-66
2023/01/06 11:57:18;;;;;;;2.80;2.50;;;18.70;64.40;;;;;;5016327;28;20334;-64
2023/01/06 12:00:30;;;;;;;2.63;2.40;;;18.70;64.40;;;;;;5013512;28;20191;-65
2023/01/06 12:03:41;;;;;;;2.63;2.42;;;18.70;64.40;;;;;;5029546;28;20215;-66
2023/01/06 12:06:12;;;;;;;3.15;2.13;;;18.70;64.50;;;;;;5000566;28;20195;-65
2023/01/06 12:09:27;;;;;;;2.38;2.17;;;18.80;64.60;;;;;;5029770;28;20188;-65
2023/01/06 12:11:57;;;;;;;2.30;2.03;;;18.70;64.50;;;;;;5013087;28;20234;-65
2023/01/06 12:14:29;;;;;;;2.60;2.38;;;18.70;64.40;;;;;;5033024;28;20241;-65
2023/01/06 12:17:32;;;;;;;2.20;2.00;;;18.70;64.50;;;;;;5025762;28;20227;-65
2023/01/06 12:20:27;;;;;;;2.60;2.40;;;18.80;64.60;;;;;;5008360;28;20206;-65
2023/01/06 12:23:11;;;;;;;2.40;2.13;;;18.80;64.60;;;;;;5032789;28;20265;-66
2023/01/06 12:25:44;;;;;;;3.17;2.50;;;18.80;64.70;;;;;;5032741;28;20203;-66
2023/01/06 12:28:40;;;;;;;2.47;2.22;;;18.80;64.60;;;;;;5012752;28;20246;-66
2023/01/06 12:31:29;;;;;;;3.10;2.13;;;18.80;64.60;;;;;;5014169;28;20188;-65
2023/01/06 12:34:32;;;;;;;3.08;2.50;;;18.80;64.70;;;;;;5013809;28;20212;-66
2023/01/06 12:37:09;;;;;;;2.28;2.08;;;18.80;64.70;;;;;;4996354;28;20192;-66
2023/01/06 12:39:41;;;;;;;2.13;1.98;;;18.80;64.70;;;;;;5025495;28;20548;-66
2023/01/06 12:42:38;;;;;;;2.47;2.00;;;18.70;64.60;;;;;;5033331;28;20211;-66
2023/01/06 12:45:23;;;;;;;2.53;2.20;;;18.80;64.80;;;;;;5048258;28;20282;-65
2023/01/06 12:47:54;;;;;;;2.40;2.20;;;18.80;64.70;;;;;;5012228;28;20188;-65
2023/01/06 12:50:34;;;;;;;2.53;2.10;;;18.70;64.60;;;;;;5006640;28;20202;-65
2023/01/06 12:53:09;;;;;;;2.15;1.90;;;18.80;64.70;;;;;;5023948;28;20246;-65
2023/01/06 12:56:02;;;;;;;2.03;1.80;;;18.80;64.70;;;;;;5013623;28;20192;-65
2023/01/06 12:58:34;;;;;;;2.28;1.98;;;18.80;64.80;;;;;;5019707;28;20211;-66
2023/01/06 13:01:13;;;;;;;1.65;1.52;;;18.80;64.70;;;;;;5024405;28;20195;-66
2023/01/06 13:04:00;;;;;;;2.85;1.95;;;18.80;64.80;;;;;;5027544;28;20235;-66
2023/01/06 13:07:09;;;;;;;1.73;1.63;;;18.80;64.80;;;;;;5023735;28;20210;-67
2023/01/06 13:10:02;;;;;;;1.70;1.60;;;18.80;64.80;;;;;;5009075;28;20337;-67
2023/01/06 13:12:59;;;;;;;2.17;1.98;;;18.80;64.80;;;;;;5025134;28;20265;-66
2023/01/06 13:15:28;;;;;;;2.13;1.92;;;18.80;64.80;;;;;;5008517;28;20187;-66
2023/01/06 13:18:12;;;;;;;2.20;2.00;;;18.80;64.80;;;;;;5022619;28;20350;-66
2023/01/06 13:21:03;;;;;;;2.47;1.80;;;18.80;64.70;;;;;;5008842;28;20188;-66
2023/01/06 13:24:14;;;;;;;2.10;1.88;;;18.80;64.70;;;;;;5011714;28;20208;-66
2023/01/06 13:27:10;;;;;;;1.42;1.33;;;18.80;64.80;;;;;;5015354;28;20200;-67
2023/01/06 13:29:55;;;;;;;1.60;1.50;;;18.80;64.70;;;;;;5018832;28;20274;-66